sensor_id;sensor_type;location;lat;lon;timestamp;P1;durP1;ratioP1;P2;durP2;ratioP2
55025;SDS011;40925;45.666;18.994;2023-07-09T00:02:15;9.23;;;5.50;;
55025;SDS011;40925;45.666;18.994;2023-07-09T00:04:41;11.05;;;5.15;;
55025;SDS011;40925;45.666;18.994;2023-07-09T00:07:11;10.43;;;5.38;;
55025;SDS011;40925;45.666;18.994;2023-07-09T00:09:49;9.93;;;4.95;;
55025;SDS011;40925;45.666;18.994;2023-07-09T00:12:16;10.68;;;5.13;;
55025;SDS011;40925;45.666;18.994;2023-07-09T00:14:43;9.32;;;5.15;;
55025;SDS011;40925;45.666;18.994;2023-07-09T00:17:28;8.38;;;5.07;;
55025;SDS011;40925;45.666;18.994;2023-07-09T00:19:56;9.40;;;5.22;;
55025;SDS011;40925;45.666;18.994;2023-07-09T00:22:22;11.15;;;5.10;;
55025;SDS011;40925;45.666;18.994;2023-07-09T00:24:49;11.45;;;5.32;;
55025;SDS011;40925;45.666;18.994;2023-07-09T00:27:19;15.80;;;5.03;;
55025;SDS011;40925;45.666;18.994;2023-07-09T00:29:47;8.88;;;5.13;;
55025;SDS011;40925;45.666;18.994;2023-07-09T00:32:16;8.85;;;5.13;;
55025;SDS011;40925;45.666;18.994;2023-07-09T00:34:47;14.15;;;5.90;;
55025;SDS011;40925;45.666;18.994;2023-07-09T00:37:18;10.57;;;5.35;;
55025;SDS011;40925;45.666;18.994;2023-07-09T00:39:49;8.43;;;5.43;;
55025;SDS011;40925;45.666;18.994;2023-07-09T00:42:16;8.23;;;5.18;;
55025;SDS011;40925;45.666;18.994;2023-07-09T00:44:46;14.23;;;5.72;;
55025;SDS011;40925;45.666;18.994;2023-07-09T00:52:59;12.25;;;5.50;;
55025;SDS011;40925;45.666;18.994;2023-07-09T00:55:32;14.05;;;5.63;;
55025;SDS011;40925;45.666;18.994;2023-07-09T00:58:03;12.63;;;5.32;;
55025;SDS011;40925;45.666;18.994;2023-07-09T01:00:39;9.50;;;5.10;;
55025;SDS011;40925;45.666;18.994;2023-07-09T01:03:13;7.95;;;5.10;;
55025;SDS011;40925;45.666;18.994;2023-07-09T01:05:45;9.80;;;5.50;;
55025;SDS011;40925;45.666;18.994;2023-07-09T01:08:16;11.88;;;5.95;;
55025;SDS011;40925;45.666;18.994;2023-07-09T01:10:44;10.15;;;5.38;;
55025;SDS011;40925;45.666;18.994;2023-07-09T01:13:10;8.82;;;5.10;;
55025;SDS011;40925;45.666;18.994;2023-07-09T01:15:36;9.57;;;5.00;;
55025;SDS011;40925;45.666;18.994;2023-07-09T01:18:03;8.45;;;5.05;;
55025;SDS011;40925;45.666;18.994;2023-07-09T01:20:29;9.27;;;5.28;;
55025;SDS011;40925;45.666;18.994;2023-07-09T01:22:56;11.10;;;5.32;;
55025;SDS011;40925;45.666;18.994;2023-07-09T01:25:22;8.25;;;5.00;;
55025;SDS011;40925;45.666;18.994;2023-07-09T01:27:49;8.07;;;5.18;;
55025;SDS011;40925;45.666;18.994;2023-07-09T01:30:32;10.93;;;5.53;;
55025;SDS011;40925;45.666;18.994;2023-07-09T01:33:03;11.13;;;5.22;;
55025;SDS011;40925;45.666;18.994;2023-07-09T01:35:31;9.90;;;5.43;;
55025;SDS011;40925;45.666;18.994;2023-07-09T01:37:59;9.13;;;5.35;;
55025;SDS011;40925;45.666;18.994;2023-07-09T01:40:26;12.50;;;5.22;;
55025;SDS011;40925;45.666;18.994;2023-07-09T01:43:12;9.43;;;5.03;;
55025;SDS011;40925;45.666;18.994;2023-07-09T01:45:37;8.65;;;5.45;;
55025;SDS011;40925;45.666;18.994;2023-07-09T01:48:03;13.10;;;5.25;;
55025;SDS011;40925;45.666;18.994;2023-07-09T01:50:30;10.35;;;5.65;;
55025;SDS011;40925;45.666;18.994;2023-07-09T01:52:56;9.55;;;4.88;;
55025;SDS011;40925;45.666;18.994;2023-07-09T01:55:22;13.57;;;5.90;;
55025;SDS011;40925;45.666;18.994;2023-07-09T01:57:48;17.13;;;5.45;;
55025;SDS011;40925;45.666;18.994;2023-07-09T02:00:16;8.82;;;5.15;;
55025;SDS011;40925;45.666;18.994;2023-07-09T02:02:43;8.98;;;5.15;;
55025;SDS011;40925;45.666;18.994;2023-07-09T02:05:11;8.77;;;5.07;;
55025;SDS011;40925;45.666;18.994;2023-07-09T02:07:38;10.98;;;5.40;;
55025;SDS011;40925;45.666;18.994;2023-07-09T02:10:05;12.18;;;5.18;;
55025;SDS011;40925;45.666;18.994;2023-07-09T02:12:31;7.57;;;5.10;;
55025;SDS011;40925;45.666;18.994;2023-07-09T02:14:57;10.93;;;5.53;;
55025;SDS011;40925;45.666;18.994;2023-07-09T02:17:22;11.05;;;5.75;;
55025;SDS011;40925;45.666;18.994;2023-07-09T02:19:48;10.35;;;5.53;;
55025;SDS011;40925;45.666;18.994;2023-07-09T02:22:14;11.80;;;6.15;;
55025;SDS011;40925;45.666;18.994;2023-07-09T02:24:40;11.18;;;5.88;;
55025;SDS011;40925;45.666;18.994;2023-07-09T02:27:06;12.20;;;5.68;;
55025;SDS011;40925;45.666;18.994;2023-07-09T02:29:33;9.70;;;5.05;;
55025;SDS011;40925;45.666;18.994;2023-07-09T02:31:59;10.65;;;5.60;;
55025;SDS011;40925;45.666;18.994;2023-07-09T02:34:26;12.80;;;5.80;;
55025;SDS011;40925;45.666;18.994;2023-07-09T02:36:53;9.68;;;5.22;;
55025;SDS011;40925;45.666;18.994;2023-07-09T02:39:19;10.95;;;5.68;;
55025;SDS011;40925;45.666;18.994;2023-07-09T02:41:46;10.75;;;5.80;;
55025;SDS011;40925;45.666;18.994;2023-07-09T02:44:12;12.95;;;5.63;;
55025;SDS011;40925;45.666;18.994;2023-07-09T02:46:38;11.48;;;5.97;;
55025;SDS011;40925;45.666;18.994;2023-07-09T02:49:04;13.50;;;6.30;;
55025;SDS011;40925;45.666;18.994;2023-07-09T02:51:31;8.32;;;5.18;;
55025;SDS011;40925;45.666;18.994;2023-07-09T02:53:57;10.60;;;5.30;;
55025;SDS011;40925;45.666;18.994;2023-07-09T02:56:24;12.52;;;5.90;;
55025;SDS011;40925;45.666;18.994;2023-07-09T02:58:50;10.90;;;5.55;;
55025;SDS011;40925;45.666;18.994;2023-07-09T03:01:16;13.82;;;7.00;;
55025;SDS011;40925;45.666;18.994;2023-07-09T03:03:42;11.80;;;7.68;;
55025;SDS011;40925;45.666;18.994;2023-07-09T03:06:08;12.10;;;6.35;;
55025;SDS011;40925;45.666;18.994;2023-07-09T03:08:35;10.55;;;5.88;;
55025;SDS011;40925;45.666;18.994;2023-07-09T03:11:08;11.57;;;5.85;;
55025;SDS011;40925;45.666;18.994;2023-07-09T03:13:38;10.40;;;6.10;;
55025;SDS011;40925;45.666;18.994;2023-07-09T03:16:04;9.05;;;5.95;;
55025;SDS011;40925;45.666;18.994;2023-07-09T03:18:30;10.15;;;5.80;;
55025;SDS011;40925;45.666;18.994;2023-07-09T03:20:56;11.80;;;5.93;;
55025;SDS011;40925;45.666;18.994;2023-07-09T03:23:23;10.52;;;5.70;;
55025;SDS011;40925;45.666;18.994;2023-07-09T03:25:49;9.05;;;5.20;;
55025;SDS011;40925;45.666;18.994;2023-07-09T03:28:14;12.20;;;5.30;;
55025;SDS011;40925;45.666;18.994;2023-07-09T03:30:41;9.23;;;5.20;;
55025;SDS011;40925;45.666;18.994;2023-07-09T03:33:09;7.35;;;4.70;;
55025;SDS011;40925;45.666;18.994;2023-07-09T03:35:35;8.88;;;5.30;;
55025;SDS011;40925;45.666;18.994;2023-07-09T03:38:03;13.10;;;5.13;;
55025;SDS011;40925;45.666;18.994;2023-07-09T03:40:29;10.02;;;5.25;;
55025;SDS011;40925;45.666;18.994;2023-07-09T03:42:55;8.38;;;5.22;;
55025;SDS011;40925;45.666;18.994;2023-07-09T03:45:21;10.63;;;6.05;;
55025;SDS011;40925;45.666;18.994;2023-07-09T03:47:46;8.75;;;5.28;;
55025;SDS011;40925;45.666;18.994;2023-07-09T03:50:12;8.68;;;5.05;;
55025;SDS011;40925;45.666;18.994;2023-07-09T03:52:38;10.07;;;5.22;;
55025;SDS011;40925;45.666;18.994;2023-07-09T03:55:04;9.52;;;5.03;;
55025;SDS011;40925;45.666;18.994;2023-07-09T03:57:30;9.20;;;4.82;;
55025;SDS011;40925;45.666;18.994;2023-07-09T03:59:59;7.72;;;4.65;;
55025;SDS011;40925;45.666;18.994;2023-07-09T04:02:26;11.90;;;5.18;;
55025;SDS011;40925;45.666;18.994;2023-07-09T04:04:51;15.48;;;5.50;;
55025;SDS011;40925;45.666;18.994;2023-07-09T04:07:17;10.15;;;5.32;;
55025;SDS011;40925;45.666;18.994;2023-07-09T04:09:43;8.88;;;5.10;;
55025;SDS011;40925;45.666;18.994;2023-07-09T04:12:09;10.10;;;4.85;;
55025;SDS011;40925;45.666;18.994;2023-07-09T04:14:35;11.13;;;5.32;;
55025;SDS011;40925;45.666;18.994;2023-07-09T04:17:01;10.30;;;5.03;;
55025;SDS011;40925;45.666;18.994;2023-07-09T04:19:27;12.00;;;5.20;;
55025;SDS011;40925;45.666;18.994;2023-07-09T04:21:53;9.82;;;4.85;;
55025;SDS011;40925;45.666;18.994;2023-07-09T04:24:19;8.93;;;5.28;;
55025;SDS011;40925;45.666;18.994;2023-07-09T04:26:45;8.93;;;5.22;;
55025;SDS011;40925;45.666;18.994;2023-07-09T04:29:12;8.48;;;5.50;;
55025;SDS011;40925;45.666;18.994;2023-07-09T04:31:40;9.75;;;5.28;;
55025;SDS011;40925;45.666;18.994;2023-07-09T04:34:06;11.07;;;5.60;;
55025;SDS011;40925;45.666;18.994;2023-07-09T04:36:32;11.23;;;5.65;;
55025;SDS011;40925;45.666;18.994;2023-07-09T04:38:58;11.48;;;5.55;;
55025;SDS011;40925;45.666;18.994;2023-07-09T04:44:08;8.30;;;5.50;;
55025;SDS011;40925;45.666;18.994;2023-07-09T04:46:34;13.45;;;5.40;;
55025;SDS011;40925;45.666;18.994;2023-07-09T04:49:00;8.43;;;5.32;;
55025;SDS011;40925;45.666;18.994;2023-07-09T04:51:28;13.82;;;5.30;;
55025;SDS011;40925;45.666;18.994;2023-07-09T04:53:54;10.48;;;5.25;;
55025;SDS011;40925;45.666;18.994;2023-07-09T04:56:20;13.00;;;5.47;;
55025;SDS011;40925;45.666;18.994;2023-07-09T04:58:46;8.77;;;5.10;;
55025;SDS011;40925;45.666;18.994;2023-07-09T05:01:12;9.90;;;5.30;;
55025;SDS011;40925;45.666;18.994;2023-07-09T05:03:37;8.38;;;5.00;;
55025;SDS011;40925;45.666;18.994;2023-07-09T05:06:04;8.00;;;4.78;;
55025;SDS011;40925;45.666;18.994;2023-07-09T05:08:30;9.50;;;5.10;;
55025;SDS011;40925;45.666;18.994;2023-07-09T05:10:56;10.45;;;5.25;;
55025;SDS011;40925;45.666;18.994;2023-07-09T05:13:23;10.50;;;5.10;;
55025;SDS011;40925;45.666;18.994;2023-07-09T05:15:49;10.75;;;4.53;;
55025;SDS011;40925;45.666;18.994;2023-07-09T05:18:16;8.15;;;4.85;;
55025;SDS011;40925;45.666;18.994;2023-07-09T05:20:42;10.18;;;4.72;;
55025;SDS011;40925;45.666;18.994;2023-07-09T05:23:08;7.05;;;4.57;;
55025;SDS011;40925;45.666;18.994;2023-07-09T05:25:35;9.18;;;4.88;;
55025;SDS011;40925;45.666;18.994;2023-07-09T05:28:01;6.47;;;4.70;;
55025;SDS011;40925;45.666;18.994;2023-07-09T05:30:27;6.45;;;4.47;;
55025;SDS011;40925;45.666;18.994;2023-07-09T05:32:52;8.63;;;4.53;;
55025;SDS011;40925;45.666;18.994;2023-07-09T05:35:21;11.63;;;4.88;;
55025;SDS011;40925;45.666;18.994;2023-07-09T05:37:46;8.45;;;4.30;;
55025;SDS011;40925;45.666;18.994;2023-07-09T05:40:12;7.85;;;4.03;;
55025;SDS011;40925;45.666;18.994;2023-07-09T05:42:38;7.82;;;4.63;;
55025;SDS011;40925;45.666;18.994;2023-07-09T05:45:04;8.23;;;4.13;;
55025;SDS011;40925;45.666;18.994;2023-07-09T05:47:30;9.88;;;4.00;;
55025;SDS011;40925;45.666;18.994;2023-07-09T05:49:56;7.97;;;3.95;;
55025;SDS011;40925;45.666;18.994;2023-07-09T05:52:22;6.63;;;3.78;;
55025;SDS011;40925;45.666;18.994;2023-07-09T05:54:49;8.98;;;3.90;;
55025;SDS011;40925;45.666;18.994;2023-07-09T05:57:16;7.15;;;4.20;;
55025;SDS011;40925;45.666;18.994;2023-07-09T05:59:42;9.52;;;4.03;;
55025;SDS011;40925;45.666;18.994;2023-07-09T06:02:10;13.32;;;4.20;;
55025;SDS011;40925;45.666;18.994;2023-07-09T06:04:36;6.95;;;4.10;;
55025;SDS011;40925;45.666;18.994;2023-07-09T06:07:02;8.18;;;3.95;;
55025;SDS011;40925;45.666;18.994;2023-07-09T06:09:29;9.70;;;4.10;;
55025;SDS011;40925;45.666;18.994;2023-07-09T06:11:55;8.38;;;3.90;;
55025;SDS011;40925;45.666;18.994;2023-07-09T06:14:21;7.63;;;4.15;;
55025;SDS011;40925;45.666;18.994;2023-07-09T06:16:46;10.50;;;3.50;;
55025;SDS011;40925;45.666;18.994;2023-07-09T06:19:12;9.75;;;4.40;;
55025;SDS011;40925;45.666;18.994;2023-07-09T06:21:39;6.60;;;3.70;;
55025;SDS011;40925;45.666;18.994;2023-07-09T06:24:05;10.98;;;3.58;;
55025;SDS011;40925;45.666;18.994;2023-07-09T06:26:41;9.13;;;3.17;;
55025;SDS011;40925;45.666;18.994;2023-07-09T06:29:07;8.05;;;3.60;;
55025;SDS011;40925;45.666;18.994;2023-07-09T06:31:33;8.15;;;3.38;;
55025;SDS011;40925;45.666;18.994;2023-07-09T06:34:01;7.43;;;3.33;;
55025;SDS011;40925;45.666;18.994;2023-07-09T06:36:26;7.97;;;3.25;;
55025;SDS011;40925;45.666;18.994;2023-07-09T06:38:52;8.80;;;3.17;;
55025;SDS011;40925;45.666;18.994;2023-07-09T06:41:19;4.00;;;2.70;;
55025;SDS011;40925;45.666;18.994;2023-07-09T06:43:44;6.97;;;3.10;;
55025;SDS011;40925;45.666;18.994;2023-07-09T06:46:15;6.68;;;2.92;;
55025;SDS011;40925;45.666;18.994;2023-07-09T06:48:43;7.00;;;2.95;;
55025;SDS011;40925;45.666;18.994;2023-07-09T06:51:09;4.00;;;2.72;;
55025;SDS011;40925;45.666;18.994;2023-07-09T06:53:35;6.15;;;2.90;;
55025;SDS011;40925;45.666;18.994;2023-07-09T06:56:01;6.60;;;2.78;;
55025;SDS011;40925;45.666;18.994;2023-07-09T06:58:28;5.05;;;3.05;;
55025;SDS011;40925;45.666;18.994;2023-07-09T07:01:02;6.47;;;2.50;;
55025;SDS011;40925;45.666;18.994;2023-07-09T07:03:28;4.35;;;2.58;;
55025;SDS011;40925;45.666;18.994;2023-07-09T07:05:54;5.38;;;2.60;;
55025;SDS011;40925;45.666;18.994;2023-07-09T07:08:22;7.22;;;2.53;;
55025;SDS011;40925;45.666;18.994;2023-07-09T07:10:50;4.90;;;2.50;;
55025;SDS011;40925;45.666;18.994;2023-07-09T07:13:30;7.18;;;2.78;;
55025;SDS011;40925;45.666;18.994;2023-07-09T07:15:58;4.25;;;2.58;;
55025;SDS011;40925;45.666;18.994;2023-07-09T07:18:25;6.22;;;2.58;;
55025;SDS011;40925;45.666;18.994;2023-07-09T07:20:51;6.03;;;2.50;;
55025;SDS011;40925;45.666;18.994;2023-07-09T07:23:17;7.05;;;2.47;;
55025;SDS011;40925;45.666;18.994;2023-07-09T07:25:44;4.63;;;2.47;;
55025;SDS011;40925;45.666;18.994;2023-07-09T07:28:11;5.70;;;2.42;;
55025;SDS011;40925;45.666;18.994;2023-07-09T07:30:37;3.70;;;2.20;;
55025;SDS011;40925;45.666;18.994;2023-07-09T07:33:03;4.60;;;2.50;;
55025;SDS011;40925;45.666;18.994;2023-07-09T07:35:29;4.45;;;2.20;;
55025;SDS011;40925;45.666;18.994;2023-07-09T07:37:54;5.45;;;2.22;;
55025;SDS011;40925;45.666;18.994;2023-07-09T07:40:20;6.60;;;2.40;;
55025;SDS011;40925;45.666;18.994;2023-07-09T07:46:08;4.63;;;2.22;;
55025;SDS011;40925;45.666;18.994;2023-07-09T07:48:34;3.88;;;2.33;;
55025;SDS011;40925;45.666;18.994;2023-07-09T07:51:00;4.75;;;2.10;;
55025;SDS011;40925;45.666;18.994;2023-07-09T07:53:28;5.82;;;2.30;;
55025;SDS011;40925;45.666;18.994;2023-07-09T07:55:55;3.13;;;2.28;;
55025;SDS011;40925;45.666;18.994;2023-07-09T07:58:22;5.47;;;2.20;;
55025;SDS011;40925;45.666;18.994;2023-07-09T08:00:48;6.32;;;2.33;;
55025;SDS011;40925;45.666;18.994;2023-07-09T08:03:14;3.42;;;2.33;;
55025;SDS011;40925;45.666;18.994;2023-07-09T08:05:40;4.43;;;2.35;;
55025;SDS011;40925;45.666;18.994;2023-07-09T08:08:06;3.45;;;2.00;;
55025;SDS011;40925;45.666;18.994;2023-07-09T08:10:32;7.35;;;2.50;;
55025;SDS011;40925;45.666;18.994;2023-07-09T08:16:02;4.35;;;2.20;;
55025;SDS011;40925;45.666;18.994;2023-07-09T08:18:28;4.75;;;2.40;;
55025;SDS011;40925;45.666;18.994;2023-07-09T08:20:55;5.03;;;2.25;;
55025;SDS011;40925;45.666;18.994;2023-07-09T08:23:21;5.43;;;2.28;;
55025;SDS011;40925;45.666;18.994;2023-07-09T08:25:53;4.85;;;2.40;;
55025;SDS011;40925;45.666;18.994;2023-07-09T08:28:19;5.20;;;2.45;;
55025;SDS011;40925;45.666;18.994;2023-07-09T08:30:45;5.90;;;2.38;;
55025;SDS011;40925;45.666;18.994;2023-07-09T08:33:11;5.57;;;2.53;;
55025;SDS011;40925;45.666;18.994;2023-07-09T08:35:37;4.93;;;2.53;;
55025;SDS011;40925;45.666;18.994;2023-07-09T08:38:03;3.90;;;2.50;;
55025;SDS011;40925;45.666;18.994;2023-07-09T08:40:29;3.78;;;2.30;;
55025;SDS011;40925;45.666;18.994;2023-07-09T08:46:06;6.63;;;2.40;;
55025;SDS011;40925;45.666;18.994;2023-07-09T08:48:33;5.35;;;2.53;;
55025;SDS011;40925;45.666;18.994;2023-07-09T08:51:03;4.72;;;2.60;;
55025;SDS011;40925;45.666;18.994;2023-07-09T08:53:38;5.72;;;2.55;;
55025;SDS011;40925;45.666;18.994;2023-07-09T08:56:06;4.68;;;2.40;;
55025;SDS011;40925;45.666;18.994;2023-07-09T08:58:33;4.00;;;2.22;;
55025;SDS011;40925;45.666;18.994;2023-07-09T09:01:04;2.78;;;2.17;;
55025;SDS011;40925;45.666;18.994;2023-07-09T09:06:09;3.88;;;2.30;;
55025;SDS011;40925;45.666;18.994;2023-07-09T09:19:15;3.45;;;2.30;;
55025;SDS011;40925;45.666;18.994;2023-07-09T09:21:44;3.42;;;2.50;;
55025;SDS011;40925;45.666;18.994;2023-07-09T09:24:14;4.53;;;2.80;;
55025;SDS011;40925;45.666;18.994;2023-07-09T09:26:42;5.22;;;2.70;;
55025;SDS011;40925;45.666;18.994;2023-07-09T09:29:13;6.38;;;3.40;;
55025;SDS011;40925;45.666;18.994;2023-07-09T09:31:40;4.78;;;3.20;;
55025;SDS011;40925;45.666;18.994;2023-07-09T09:34:18;3.50;;;3.03;;
55025;SDS011;40925;45.666;18.994;2023-07-09T09:36:46;5.50;;;2.65;;
55025;SDS011;40925;45.666;18.994;2023-07-09T09:39:12;5.30;;;2.50;;
55025;SDS011;40925;45.666;18.994;2023-07-09T09:41:38;6.55;;;2.50;;
55025;SDS011;40925;45.666;18.994;2023-07-09T09:44:05;6.05;;;2.58;;
55025;SDS011;40925;45.666;18.994;2023-07-09T09:46:31;5.15;;;2.55;;
55025;SDS011;40925;45.666;18.994;2023-07-09T09:49:01;5.68;;;2.70;;
55025;SDS011;40925;45.666;18.994;2023-07-09T09:51:28;4.18;;;2.50;;
55025;SDS011;40925;45.666;18.994;2023-07-09T09:53:58;3.92;;;2.53;;
55025;SDS011;40925;45.666;18.994;2023-07-09T09:56:35;4.45;;;2.50;;
55025;SDS011;40925;45.666;18.994;2023-07-09T09:59:02;7.13;;;3.05;;
55025;SDS011;40925;45.666;18.994;2023-07-09T10:01:30;3.35;;;2.20;;
55025;SDS011;40925;45.666;18.994;2023-07-09T10:04:00;4.45;;;2.40;;
55025;SDS011;40925;45.666;18.994;2023-07-09T10:20:21;5.00;;;2.67;;
55025;SDS011;40925;45.666;18.994;2023-07-09T10:23:28;4.15;;;2.75;;
55025;SDS011;40925;45.666;18.994;2023-07-09T10:26:02;4.00;;;2.50;;
55025;SDS011;40925;45.666;18.994;2023-07-09T10:28:33;4.72;;;2.35;;
55025;SDS011;40925;45.666;18.994;2023-07-09T10:34:11;5.15;;;2.47;;
55025;SDS011;40925;45.666;18.994;2023-07-09T10:39:17;3.88;;;2.30;;
55025;SDS011;40925;45.666;18.994;2023-07-09T10:41:49;3.47;;;2.60;;
55025;SDS011;40925;45.666;18.994;2023-07-09T10:44:19;3.05;;;2.17;;
55025;SDS011;40925;45.666;18.994;2023-07-09T10:46:51;4.18;;;2.30;;
55025;SDS011;40925;45.666;18.994;2023-07-09T10:49:22;5.88;;;2.47;;
55025;SDS011;40925;45.666;18.994;2023-07-09T10:54:50;3.10;;;2.30;;
55025;SDS011;40925;45.666;18.994;2023-07-09T11:00:18;5.07;;;2.38;;
55025;SDS011;40925;45.666;18.994;2023-07-09T11:02:48;3.85;;;2.30;;
55025;SDS011;40925;45.666;18.994;2023-07-09T11:05:24;5.13;;;2.40;;
55025;SDS011;40925;45.666;18.994;2023-07-09T11:08:24;4.40;;;2.72;;
55025;SDS011;40925;45.666;18.994;2023-07-09T11:13:39;5.70;;;2.63;;
55025;SDS011;40925;45.666;18.994;2023-07-09T11:16:11;4.25;;;2.30;;
55025;SDS011;40925;45.666;18.994;2023-07-09T11:18:39;5.00;;;2.55;;
55025;SDS011;40925;45.666;18.994;2023-07-09T11:21:13;2.92;;;2.30;;
55025;SDS011;40925;45.666;18.994;2023-07-09T11:23:49;3.65;;;2.25;;
55025;SDS011;40925;45.666;18.994;2023-07-09T11:29:05;4.05;;;2.70;;
55025;SDS011;40925;45.666;18.994;2023-07-09T11:31:38;5.63;;;3.85;;
55025;SDS011;40925;45.666;18.994;2023-07-09T11:34:09;4.70;;;2.30;;
55025;SDS011;40925;45.666;18.994;2023-07-09T11:42:02;5.40;;;2.50;;
55025;SDS011;40925;45.666;18.994;2023-07-09T11:44:32;4.43;;;2.47;;
55025;SDS011;40925;45.666;18.994;2023-07-09T11:49:51;2.47;;;2.08;;
55025;SDS011;40925;45.666;18.994;2023-07-09T11:52:34;4.68;;;2.60;;
55025;SDS011;40925;45.666;18.994;2023-07-09T11:55:14;6.57;;;4.60;;
55025;SDS011;40925;45.666;18.994;2023-07-09T11:57:48;4.55;;;2.60;;
55025;SDS011;40925;45.666;18.994;2023-07-09T12:00:21;4.47;;;2.58;;
55025;SDS011;40925;45.666;18.994;2023-07-09T12:02:47;4.25;;;2.20;;
55025;SDS011;40925;45.666;18.994;2023-07-09T12:05:17;3.72;;;2.30;;
55025;SDS011;40925;45.666;18.994;2023-07-09T12:07:46;3.90;;;2.35;;
55025;SDS011;40925;45.666;18.994;2023-07-09T12:10:20;3.53;;;1.90;;
55025;SDS011;40925;45.666;18.994;2023-07-09T12:12:48;8.57;;;4.97;;
55025;SDS011;40925;45.666;18.994;2023-07-09T12:15:19;4.78;;;2.30;;
55025;SDS011;40925;45.666;18.994;2023-07-09T12:17:55;3.58;;;1.90;;
55025;SDS011;40925;45.666;18.994;2023-07-09T12:20:30;6.97;;;2.10;;
55025;SDS011;40925;45.666;18.994;2023-07-09T12:22:59;2.92;;;2.20;;
55025;SDS011;40925;45.666;18.994;2023-07-09T12:25:34;4.28;;;2.35;;
55025;SDS011;40925;45.666;18.994;2023-07-09T12:28:00;3.80;;;2.17;;
55025;SDS011;40925;45.666;18.994;2023-07-09T12:30:27;2.92;;;2.05;;
55025;SDS011;40925;45.666;18.994;2023-07-09T12:32:56;3.50;;;2.10;;
55025;SDS011;40925;45.666;18.994;2023-07-09T12:35:22;5.10;;;2.17;;
55025;SDS011;40925;45.666;18.994;2023-07-09T12:37:48;2.90;;;1.98;;
55025;SDS011;40925;45.666;18.994;2023-07-09T12:40:20;3.75;;;1.85;;
55025;SDS011;40925;45.666;18.994;2023-07-09T12:42:47;5.47;;;2.20;;
55025;SDS011;40925;45.666;18.994;2023-07-09T12:45:14;3.60;;;1.90;;
55025;SDS011;40925;45.666;18.994;2023-07-09T12:47:42;3.42;;;1.92;;
55025;SDS011;40925;45.666;18.994;2023-07-09T12:50:27;2.72;;;2.10;;
55025;SDS011;40925;45.666;18.994;2023-07-09T12:52:59;3.20;;;2.00;;
55025;SDS011;40925;45.666;18.994;2023-07-09T12:55:28;3.92;;;1.98;;
55025;SDS011;40925;45.666;18.994;2023-07-09T12:57:57;2.45;;;2.05;;
55025;SDS011;40925;45.666;18.994;2023-07-09T13:00:30;2.67;;;2.08;;
55025;SDS011;40925;45.666;18.994;2023-07-09T13:02:57;3.28;;;1.90;;
55025;SDS011;40925;45.666;18.994;2023-07-09T13:05:24;2.78;;;1.80;;
55025;SDS011;40925;45.666;18.994;2023-07-09T13:07:52;3.13;;;2.00;;
55025;SDS011;40925;45.666;18.994;2023-07-09T13:10:24;5.07;;;2.15;;
55025;SDS011;40925;45.666;18.994;2023-07-09T13:12:52;4.28;;;2.20;;
55025;SDS011;40925;45.666;18.994;2023-07-09T13:15:39;3.10;;;2.15;;
55025;SDS011;40925;45.666;18.994;2023-07-09T13:18:09;5.45;;;2.00;;
55025;SDS011;40925;45.666;18.994;2023-07-09T13:20:37;2.90;;;1.80;;
55025;SDS011;40925;45.666;18.994;2023-07-09T13:23:13;3.90;;;1.65;;
55025;SDS011;40925;45.666;18.994;2023-07-09T13:25:43;1.90;;;1.45;;
55025;SDS011;40925;45.666;18.994;2023-07-09T13:28:16;4.05;;;1.90;;
55025;SDS011;40925;45.666;18.994;2023-07-09T13:30:47;2.10;;;1.65;;
55025;SDS011;40925;45.666;18.994;2023-07-09T13:33:16;2.42;;;1.60;;
55025;SDS011;40925;45.666;18.994;2023-07-09T13:35:43;3.78;;;1.83;;
55025;SDS011;40925;45.666;18.994;2023-07-09T13:38:13;3.65;;;1.80;;
55025;SDS011;40925;45.666;18.994;2023-07-09T13:40:43;4.18;;;2.15;;
55025;SDS011;40925;45.666;18.994;2023-07-09T13:43:12;3.15;;;1.80;;
55025;SDS011;40925;45.666;18.994;2023-07-09T13:45:39;3.40;;;2.15;;
55025;SDS011;40925;45.666;18.994;2023-07-09T13:48:08;2.33;;;1.88;;
55025;SDS011;40925;45.666;18.994;2023-07-09T13:50:39;4.28;;;1.75;;
55025;SDS011;40925;45.666;18.994;2023-07-09T13:53:09;3.35;;;2.00;;
55025;SDS011;40925;45.666;18.994;2023-07-09T13:55:38;3.20;;;1.98;;
55025;SDS011;40925;45.666;18.994;2023-07-09T13:58:04;3.47;;;2.20;;
55025;SDS011;40925;45.666;18.994;2023-07-09T14:00:30;3.78;;;2.10;;
55025;SDS011;40925;45.666;18.994;2023-07-09T14:02:56;5.65;;;2.00;;
55025;SDS011;40925;45.666;18.994;2023-07-09T14:05:22;3.40;;;1.90;;
55025;SDS011;40925;45.666;18.994;2023-07-09T14:07:48;3.95;;;2.00;;
55025;SDS011;40925;45.666;18.994;2023-07-09T14:10:14;3.47;;;2.10;;
55025;SDS011;40925;45.666;18.994;2023-07-09T14:15:29;3.72;;;2.10;;
55025;SDS011;40925;45.666;18.994;2023-07-09T14:17:55;2.55;;;1.77;;
55025;SDS011;40925;45.666;18.994;2023-07-09T14:20:21;4.43;;;2.30;;
55025;SDS011;40925;45.666;18.994;2023-07-09T14:22:48;4.25;;;2.20;;
55025;SDS011;40925;45.666;18.994;2023-07-09T14:25:18;2.67;;;1.90;;
55025;SDS011;40925;45.666;18.994;2023-07-09T14:27:47;3.55;;;2.20;;
55025;SDS011;40925;45.666;18.994;2023-07-09T14:30:16;4.07;;;2.13;;
55025;SDS011;40925;45.666;18.994;2023-07-09T14:32:43;3.22;;;2.50;;
55025;SDS011;40925;45.666;18.994;2023-07-09T14:35:12;3.45;;;2.10;;
55025;SDS011;40925;45.666;18.994;2023-07-09T14:37:40;5.45;;;2.20;;
55025;SDS011;40925;45.666;18.994;2023-07-09T14:40:07;4.65;;;1.90;;
55025;SDS011;40925;45.666;18.994;2023-07-09T14:42:34;5.63;;;1.88;;
55025;SDS011;40925;45.666;18.994;2023-07-09T14:45:01;3.90;;;2.10;;
55025;SDS011;40925;45.666;18.994;2023-07-09T14:47:28;3.55;;;2.03;;
55025;SDS011;40925;45.666;18.994;2023-07-09T14:49:54;6.10;;;2.28;;
55025;SDS011;40925;45.666;18.994;2023-07-09T14:52:20;3.28;;;2.13;;
55025;SDS011;40925;45.666;18.994;2023-07-09T14:54:47;2.80;;;1.80;;
55025;SDS011;40925;45.666;18.994;2023-07-09T14:57:17;4.40;;;2.30;;
55025;SDS011;40925;45.666;18.994;2023-07-09T14:59:46;4.85;;;2.15;;
55025;SDS011;40925;45.666;18.994;2023-07-09T15:05:01;2.90;;;1.92;;
55025;SDS011;40925;45.666;18.994;2023-07-09T15:10:00;3.10;;;2.15;;
55025;SDS011;40925;45.666;18.994;2023-07-09T15:12:30;5.00;;;2.30;;
55025;SDS011;40925;45.666;18.994;2023-07-09T15:15:03;4.72;;;2.00;;
55025;SDS011;40925;45.666;18.994;2023-07-09T15:17:38;4.90;;;2.10;;
55025;SDS011;40925;45.666;18.994;2023-07-09T15:20:04;3.22;;;2.05;;
55025;SDS011;40925;45.666;18.994;2023-07-09T15:22:33;3.05;;;2.10;;
55025;SDS011;40925;45.666;18.994;2023-07-09T15:25:00;4.05;;;2.00;;
55025;SDS011;40925;45.666;18.994;2023-07-09T15:27:26;5.55;;;2.22;;
55025;SDS011;40925;45.666;18.994;2023-07-09T15:30:14;3.28;;;2.38;;
55025;SDS011;40925;45.666;18.994;2023-07-09T15:32:43;5.93;;;2.58;;
55025;SDS011;40925;45.666;18.994;2023-07-09T15:35:09;6.57;;;2.33;;
55025;SDS011;40925;45.666;18.994;2023-07-09T15:37:35;4.43;;;2.35;;
55025;SDS011;40925;45.666;18.994;2023-07-09T15:40:01;4.03;;;2.33;;
55025;SDS011;40925;45.666;18.994;2023-07-09T15:42:28;8.38;;;2.60;;
55025;SDS011;40925;45.666;18.994;2023-07-09T15:44:54;3.17;;;2.20;;
55025;SDS011;40925;45.666;18.994;2023-07-09T15:47:21;4.22;;;2.50;;
55025;SDS011;40925;45.666;18.994;2023-07-09T15:49:50;4.28;;;2.30;;
55025;SDS011;40925;45.666;18.994;2023-07-09T15:52:16;5.30;;;2.33;;
55025;SDS011;40925;45.666;18.994;2023-07-09T15:54:41;4.50;;;2.40;;
55025;SDS011;40925;45.666;18.994;2023-07-09T15:57:08;3.65;;;2.35;;